Time;durP1;ratioP1;P1;durP2;ratioP2;P2;SDS_P1;SDS_P2;PMS_P1;PMS_P2;Temp;Humidity;BMP_temperature;BMP_pressure;BME280_temperature;BME280_humidity;BME280_pressure;Samples;Min_cycle;Max_cycle;Signal;HPM_P1;HPM_P2
2022/10/27 00:05:07;;;;;;;39.48;22.00;;;;;;;5.74;97.66;99905.69;4468929;78;21106;-82
2022/10/27 00:11:10;;;;;;;38.28;21.85;;;;;;;5.68;97.57;99912.41;4463205;77;21621;-82
2022/10/27 00:17:12;;;;;;;36.28;19.45;;;;;;;5.62;97.81;99906.33;4448550;77;21035;-83
2022/10/27 00:23:14;;;;;;;34.35;21.05;;;;;;;5.63;98.49;99909.85;4472211;77;21035;-82
2022/10/27 00:29:15;;;;;;;36.28;21.73;;;;;;;5.57;97.68;99906.52;4469596;77;21031;-83
2022/10/27 00:35:17;;;;;;;36.60;17.90;;;;;;;5.44;97.72;99914.80;4460558;78;21029;-83
2022/10/27 00:41:29;;;;;;;36.68;21.05;;;;;;;5.33;97.79;99914.31;4446348;78;21089;-84
2022/10/27 00:47:34;;;;;;;33.42;19.52;;;;;;;5.24;97.84;99915.42;4456571;78;21086;-83
2022/10/27 00:53:36;;;;;;;27.70;15.63;;;;;;;5.19;98.47;99916.92;4471586;78;21634;-83
2022/10/27 00:59:38;;;;;;;27.80;14.73;;;;;;;5.23;98.90;99914.61;4465434;78;21055;-83
2022/10/27 01:05:41;;;;;;;33.28;18.87;;;;;;;5.25;99.06;99910.22;4466369;77;20983;-83
2022/10/27 01:11:43;;;;;;;35.03;19.65;;;;;;;5.25;98.95;99913.74;4473625;78;21118;-83
2022/10/27 01:17:58;;;;;;;26.87;14.33;;;;;;;5.22;98.58;99913.03;4462534;77;21476;-83
2022/10/27 01:24:14;;;;;;;43.10;21.10;;;;;;;5.20;99.27;99923.97;4365736;77;20967;-82
2022/10/27 01:30:20;;;;;;;35.03;21.27;;;;;;;5.15;98.64;99918.69;4467547;77;21032;-83
2022/10/27 01:36:37;;;;;;;37.08;13.95;;;;;;;5.06;98.80;99916.52;4468824;78;22031;-83
2022/10/27 01:42:51;;;;;;;34.75;20.12;;;;;;;5.08;99.73;99918.34;4460701;77;22058;-82
2022/10/27 01:48:53;;;;;;;34.60;20.60;;;;;;;5.09;98.83;99918.02;4465849;78;21041;-84
2022/10/27 01:54:56;;;;;;;36.35;19.70;;;;;;;4.96;98.70;99918.16;4468016;78;21083;-82
2022/10/27 02:01:15;;;;;;;32.85;19.20;;;;;;;4.81;98.45;99920.74;4453758;78;21027;-84
2022/10/27 02:07:22;;;;;;;27.42;16.45;;;;;;;4.66;98.67;99913.05;4459330;78;21035;-83
2022/10/27 02:13:24;;;;;;;37.25;18.55;;;;;;;4.61;99.01;99926.74;4463647;78;21405;-83
2022/10/27 02:19:35;;;;;;;30.12;17.10;;;;;;;4.55;98.96;99926.09;4464339;77;21583;-83
2022/10/27 02:26:17;;;;;;;28.98;16.02;;;;;;;4.51;99.15;99937.88;4469545;77;21012;-83
2022/10/27 02:32:21;;;;;;;34.88;18.50;;;;;;;4.50;99.69;99943.05;4252403;79;35874;-82
2022/10/27 02:38:23;;;;;;;25.70;15.43;;;;;;;4.53;99.83;99941.87;4224464;82;21025;-82
2022/10/27 02:44:24;;;;;;;31.15;17.92;;;;;;;4.48;99.42;99952.03;4218022;82;21085;-83
2022/10/27 02:50:25;;;;;;;36.70;18.85;;;;;;;4.38;99.40;99956.39;4222652;82;21631;-83
2022/10/27 02:56:26;;;;;;;26.60;15.35;;;;;;;4.28;99.38;99953.38;4224282;82;21547;-85
2022/10/27 03:02:29;;;;;;;31.33;18.27;;;;;;;4.26;100.00;99960.23;4240460;82;20997;-82
2022/10/27 03:08:30;;;;;;;34.40;18.98;;;;;;;4.25;99.90;99958.61;4223808;82;21025;-83
2022/10/27 03:14:32;;;;;;;25.40;13.93;;;;;;;4.23;100.00;99962.17;4224209;82;21405;-82
2022/10/27 03:20:34;;;;;;;30.80;16.90;;;;;;;4.23;100.00;99967.59;4233330;82;21003;-83
2022/10/27 03:26:35;;;;;;;26.10;15.43;;;;;;;4.26;100.00;99978.63;4227049;82;21063;-83
2022/10/27 03:32:38;;;;;;;37.48;18.27;;;;;;;4.22;100.00;99981.72;4225915;82;21420;-85
2022/10/27 03:38:40;;;;;;;31.40;16.42;;;;;;;4.18;100.00;99988.86;4221580;82;21093;-82
2022/10/27 03:44:42;;;;;;;43.50;19.32;;;;;;;4.06;100.00;99993.23;4221904;82;21542;-82
2022/10/27 03:50:49;;;;;;;29.15;17.35;;;;;;;4.00;100.00;99986.34;4224719;82;21067;-83
2022/10/27 03:56:50;;;;;;;30.43;14.80;;;;;;;3.90;99.89;99987.95;4229368;82;21042;-82
2022/10/27 04:02:55;;;;;;;28.10;15.20;;;;;;;3.81;100.00;99992.48;4231125;82;21693;-82
2022/10/27 04:08:56;;;;;;;29.75;16.52;;;;;;;3.78;100.00;99995.25;4229905;82;21085;-85
2022/10/27 04:14:58;;;;;;;27.60;14.73;;;;;;;3.82;100.00;100004.36;4234504;82;21060;-85
2022/10/27 04:21:05;;;;;;;29.15;16.62;;;;;;;3.98;100.00;100004.26;4210927;83;21171;-83
2022/10/27 04:27:07;;;;;;;37.67;19.70;;;;;;;3.95;100.00;100001.35;4226850;82;21141;-83
2022/10/27 04:33:08;;;;;;;30.92;17.27;;;;;;;3.90;100.00;100001.50;4221317;82;21051;-82
2022/10/27 04:39:14;;;;;;;27.07;15.50;;;;;;;3.81;100.00;100005.47;4219744;82;21053;-82
2022/10/27 04:45:15;;;;;;;33.70;17.50;;;;;;;3.70;100.00;100001.94;4220861;82;21078;-82
2022/10/27 04:51:20;;;;;;;33.18;16.77;;;;;;;3.64;100.00;100002.63;4220310;82;21436;-83
2022/10/27 04:57:21;;;;;;;36.63;18.45;;;;;;;3.58;100.00;100009.25;4223252;82;21720;-83
2022/10/27 05:03:23;;;;;;;23.32;14.35;;;;;;;3.61;100.00;100006.48;4219927;82;21064;-83
2022/10/27 05:09:24;;;;;;;35.17;17.75;;;;;;;3.63;100.00;100021.88;4225516;82;21666;-83
2022/10/27 05:15:26;;;;;;;31.05;17.10;;;;;;;3.67;100.00;100018.80;4226159;82;21104;-82
2022/10/27 05:21:27;;;;;;;30.23;17.17;;;;;;;3.80;100.00;100028.27;4228880;82;21577;-83
2022/10/27 05:27:31;;;;;;;27.90;15.80;;;;;;;3.91;100.00;100028.28;4224227;82;21028;-83
2022/10/27 05:33:32;;;;;;;32.05;17.98;;;;;;;4.06;100.00;100033.87;4227312;81;21504;-83
2022/10/27 05:39:33;;;;;;;29.98;18.85;;;;;;;4.21;100.00;100042.44;4223194;82;20979;-82
2022/10/27 05:45:35;;;;;;;33.02;19.90;;;;;;;4.29;100.00;100049.84;4228631;82;21576;-83
2022/10/27 05:51:36;;;;;;;33.67;18.32;;;;;;;4.37;100.00;100051.81;4230543;82;21695;-83
2022/10/27 05:57:37;;;;;;;37.35;23.47;;;;;;;4.52;100.00;100060.13;4226979;82;21037;-83
2022/10/27 06:03:38;;;;;;;47.95;28.85;;;;;;;4.75;100.00;100069.30;4225112;82;21477;-83
2022/10/27 06:09:40;;;;;;;48.20;27.73;;;;;;;4.90;100.00;100073.53;4233040;82;21044;-82
2022/10/27 06:15:42;;;;;;;54.30;28.80;;;;;;;5.07;100.00;100077.69;4225605;82;21701;-83
2022/10/27 06:21:43;;;;;;;39.90;21.52;;;;;;;5.29;100.00;100090.38;4220546;83;21127;-85
2022/10/27 06:27:44;;;;;;;35.50;20.02;;;;;;;5.44;100.00;100099.45;4224381;82;21024;-83
2022/10/27 06:33:45;;;;;;;30.92;19.37;;;;;;;5.60;100.00;100101.44;4216279;82;21483;-83
2022/10/27 06:39:47;;;;;;;30.50;18.67;;;;;;;5.76;100.00;100103.94;4224733;82;20997;-83
2022/10/27 06:45:48;;;;;;;35.28;18.70;;;;;;;5.90;100.00;100105.99;4217676;82;21155;-84
2022/10/27 06:51:49;;;;;;;29.55;16.95;;;;;;;5.98;100.00;100114.72;4216915;81;21048;-83
2022/10/27 06:57:51;;;;;;;27.82;18.02;;;;;;;6.08;100.00;100125.85;4216602;82;22180;-82
2022/10/27 07:03:53;;;;;;;25.32;16.05;;;;;;;6.17;100.00;100122.61;4219428;82;21055;-83
2022/10/27 07:09:56;;;;;;;24.30;15.18;;;;;;;6.24;100.00;100129.72;4216794;82;21113;-82
2022/10/27 07:15:58;;;;;;;25.32;15.68;;;;;;;6.25;100.00;100140.27;4215270;82;21002;-84
2022/10/27 07:22:01;;;;;;;26.05;15.58;;;;;;;6.59;100.00;100143.58;4229754;82;21125;-83
2022/10/27 07:28:05;;;;;;;25.45;15.80;;;;;;;7.58;100.00;100145.91;4222103;82;21052;-83
2022/10/27 07:34:06;;;;;;;27.55;16.50;;;;;;;8.28;100.00;100151.47;4212110;82;21018;-84
2022/10/27 07:40:11;;;;;;;40.12;23.73;;;;;;;8.56;100.00;100157.19;4218148;82;21018;-83
2022/10/27 07:46:12;;;;;;;35.90;22.27;;;;;;;8.77;100.00;100172.41;4314880;80;31967;-83
2022/10/27 07:52:13;;;;;;;29.20;20.27;;;;;;;9.14;100.00;100182.37;4349047;80;20991;-84
2022/10/27 07:58:16;;;;;;;28.27;18.25;;;;;;;9.75;100.00;100192.05;4352131;80;21030;-83
2022/10/27 08:04:17;;;;;;;38.02;21.60;;;;;;;10.75;100.00;100181.38;4346098;80;21049;-84
2022/10/27 08:10:20;;;;;;;49.08;25.27;;;;;;;11.56;100.00;100174.00;4348061;80;20994;-85
2022/10/27 08:16:22;;;;;;;42.55;23.22;;;;;;;12.37;100.00;100176.78;4350492;81;21047;-83
2022/10/27 08:22:23;;;;;;;33.18;20.80;;;;;;;13.43;100.00;100176.23;4343928;80;21003;-84
2022/10/27 08:28:25;;;;;;;33.42;19.17;;;;;;;14.42;100.00;100178.11;4343928;80;21050;-85
2022/10/27 08:34:28;;;;;;;33.67;18.60;;;;;;;15.00;98.51;100189.52;4341374;80;20989;-84
2022/10/27 08:41:16;;;;;;;33.00;19.42;;;;;;;15.56;98.06;100188.21;4347860;81;21561;-85
2022/10/27 08:47:50;;;;;;;42.15;22.17;;;;;;;15.85;96.50;100195.38;4347914;81;21735;-85
2022/10/27 08:53:58;;;;;;;29.57;18.73;;;;;;;16.32;95.90;100193.37;4346538;80;21911;-84
2022/10/27 09:00:01;;;;;;;28.42;16.45;;;;;;;16.86;95.00;100192.55;4350822;81;20971;-85
2022/10/27 09:06:34;;;;;;;22.87;13.30;;;;;;;17.32;92.22;100188.58;4350962;80;21006;-84
2022/10/27 09:12:57;;;;;;;23.45;10.80;;;;;;;18.15;92.92;100186.51;4354426;80;21061;-85
2022/10/27 09:19:23;;;;;;;18.27;10.70;;;;;;;18.58;89.62;100188.66;4349714;81;21022;-85
2022/10/27 09:25:36;;;;;;;20.33;11.03;;;;;;;19.08;89.08;100193.45;4350516;81;21522;-85
2022/10/27 09:32:00;;;;;;;15.25;9.03;;;;;;;19.60;88.15;100208.48;4355920;80;21011;-85
2022/10/27 09:38:03;;;;;;;11.03;6.28;;;;;;;20.12;86.52;100206.52;4353161;80;20975;-85
2022/10/27 09:44:28;;;;;;;15.35;7.55;;;;;;;20.62;84.24;100202.11;4349649;80;21723;-85
2022/10/27 09:50:58;;;;;;;12.28;6.83;;;;;;;20.80;83.76;100195.73;4345393;81;20982;-86
2022/10/27 09:57:18;;;;;;;17.45;7.60;;;;;;;21.42;82.62;100200.34;4352039;80;21826;-85
2022/10/27 10:03:21;;;;;;;13.10;8.28;;;;;;;21.86;81.04;100204.14;4344670;80;21006;-85
2022/10/27 10:09:27;;;;;;;12.82;8.58;;;;;;;22.07;80.22;100199.01;4346993;80;21050;-86
2022/10/27 10:15:30;;;;;;;;;;;;;;;22.27;78.27;100196.30;4355418;79;21022;-86
2022/10/27 10:22:03;;;;;;;12.18;7.42;;;;;;;22.27;74.93;100190.72;4349687;80;20112;-86
2022/10/27 10:28:06;;;;;;;14.23;7.58;;;;;;;22.11;75.46;100196.97;4352446;80;21066;-86
2022/10/27 10:34:12;;;;;;;15.80;7.45;;;;;;;21.94;74.23;100196.63;4352773;80;21003;-86
2022/10/27 10:40:33;;;;;;;9.43;6.20;;;;;;;21.43;73.11;100192.20;4343383;81;20991;-86
2022/10/27 10:46:53;;;;;;;10.28;5.58;;;;;;;20.66;74.58;100185.36;4344287;80;21073;-86
2022/10/27 10:53:46;;;;;;;8.53;5.55;;;;;;;20.51;74.60;100171.42;4348444;80;21124;-87
2022/10/27 11:00:10;;;;;;;13.25;5.97;;;;;;;20.58;74.05;100167.19;4270784;81;21003;-86
2022/10/27 11:06:37;;;;;;;8.95;4.62;;;;;;;20.64;72.67;100166.30;4230403;82;21027;-86
2022/10/27 11:19:22;;;;;;;7.28;4.10;;;;;;;20.47;71.30;100171.45;4250015;83;21770;-86
2022/10/27 11:46:57;;;;;;;13.98;6.67;;;;;;;19.24;70.92;100168.20;4105431;84;21143;-86
2022/10/27 11:53:09;;;;;;;8.48;6.00;;;;;;;19.15;71.62;100166.47;4084340;85;21027;-85
2022/10/27 12:06:11;;;;;;;9.28;5.87;;;;;;;19.01;71.75;100148.50;4668627;74;22823;-87
2022/10/27 12:19:44;;;;;;;7.33;5.03;;;;;;;18.77;72.22;100140.27;4591377;75;21003;-85
2022/10/27 12:26:05;;;;;;;9.55;5.20;;;;;;;18.80;72.26;100137.48;4603007;75;22114;-86
2022/10/27 12:32:45;;;;;;;7.55;4.22;;;;;;;18.76;72.41;100136.72;4499342;77;21021;-87
2022/10/27 12:39:28;;;;;;;10.00;5.22;;;;;;;18.73;72.60;100137.50;4454813;77;21948;-85
2022/10/27 12:46:07;;;;;;;6.62;3.42;;;;;;;18.54;72.02;100131.82;4472517;78;21014;-85
2022/10/27 12:52:39;;;;;;;7.87;3.33;;;;;;;18.55;72.05;100136.19;4478534;78;20948;-85
2022/10/27 12:59:12;;;;;;;5.37;2.62;;;;;;;18.55;71.42;100135.39;4424580;78;21064;-85
2022/10/27 13:12:53;;;;;;;7.03;3.52;;;;;;;18.39;71.79;100137.22;4295165;82;21102;-85
2022/10/27 13:20:04;;;;;;;7.47;3.77;;;;;;;18.45;71.87;100133.42;4196160;83;21043;-85
2022/10/27 13:26:31;;;;;;;8.70;4.40;;;;;;;18.30;71.71;100135.43;4181705;83;21042;-85
2022/10/27 13:33:07;;;;;;;8.53;4.35;;;;;;;18.20;71.32;100130.69;4213430;83;21622;-85
2022/10/27 13:39:33;;;;;;;11.28;4.12;;;;;;;18.06;71.54;100135.45;4240282;83;20985;-86
2022/10/27 13:46:11;;;;;;;8.90;3.58;;;;;;;17.99;71.93;100123.80;4231992;83;21009;-85
2022/10/27 13:52:20;;;;;;;10.37;4.13;;;;;;;17.89;72.15;100128.75;4221975;81;21148;-85
2022/10/27 13:59:04;;;;;;;7.40;3.95;;;;;;;17.79;72.32;100121.83;4382753;80;21030;-86
2022/10/27 14:05:33;;;;;;;11.45;4.35;;;;;;;17.71;72.50;100124.40;4502156;77;21088;-86
2022/10/27 14:12:14;;;;;;;;;;;;;;;17.51;72.65;100125.36;4418979;78;21094;-85
2022/10/27 14:19:09;;;;;;;8.08;3.20;;;;;;;17.41;72.75;100119.79;4458313;78;20123;-85
2022/10/27 14:25:31;;;;;;;7.17;3.33;;;;;;;17.33;72.77;100127.88;4435880;78;21175;-86
2022/10/27 14:32:07;;;;;;;7.37;3.70;;;;;;;17.21;73.18;100133.20;4439649;78;21008;-85
2022/10/27 14:38:21;;;;;;;6.95;3.67;;;;;;;17.08;73.28;100133.36;4465577;78;20976;-86
2022/10/27 14:44:37;;;;;;;7.97;3.67;;;;;;;16.93;73.71;100140.02;4523671;78;21006;-84
2022/10/27 14:50:44;;;;;;;12.82;4.03;;;;;;;16.84;74.02;100145.12;4534014;77;21458;-86
2022/10/27 14:57:31;;;;;;;13.40;4.40;;;;;;;16.63;74.40;100145.04;4391602;78;21023;-85
2022/10/27 15:03:33;;;;;;;7.73;4.13;;;;;;;16.42;74.86;100144.88;4447988;78;21077;-86
2022/10/27 15:09:44;;;;;;;11.38;5.80;;;;;;;16.25;75.47;100143.61;4452050;79;21469;-86
2022/10/27 15:16:00;;;;;;;12.82;5.67;;;;;;;16.16;75.90;100149.27;4406253;79;20987;-85
2022/10/27 15:22:34;;;;;;;14.80;8.18;;;;;;;16.08;76.31;100149.00;4446205;79;21019;-85
2022/10/27 15:28:42;;;;;;;16.87;7.90;;;;;;;15.99;76.75;100144.41;4420363;79;21781;-85
2022/10/27 15:34:43;;;;;;;16.05;7.70;;;;;;;15.82;77.22;100147.83;4444580;78;21008;-85
2022/10/27 15:41:15;;;;;;;14.70;6.35;;;;;;;15.64;77.73;100157.33;4483503;79;20987;-85
2022/10/27 15:47:48;;;;;;;19.07;8.03;;;;;;;15.43;78.26;100155.16;4416344;79;20986;-85
2022/10/27 15:53:54;;;;;;;19.27;7.53;;;;;;;15.27;78.60;100159.27;4386154;78;21059;-85
2022/10/27 16:00:36;;;;;;;25.00;8.98;;;;;;;14.95;79.20;100157.55;4425951;78;21091;-86
2022/10/27 16:06:46;;;;;;;20.15;10.65;;;;;;;14.73;79.63;100158.46;4442970;78;21595;-86
2022/10/27 16:12:48;;;;;;;15.55;9.55;;;;;;;14.41;80.30;100163.34;4509902;77;21006;-85
2022/10/27 16:18:56;;;;;;;23.67;9.63;;;;;;;14.16;80.93;100171.19;4518327;77;21006;-84
2022/10/27 16:24:58;;;;;;;;;;;;;;;13.93;81.39;100168.48;4511478;77;21072;-84
2022/10/27 16:31:08;;;;;;;48.73;22.82;;;;;;;13.70;82.53;100173.19;4519788;77;20424;-86
2022/10/27 16:37:24;;;;;;;62.25;31.52;;;;;;;13.44;82.44;100177.82;4484170;77;21957;-86
2022/10/27 16:43:34;;;;;;;63.15;30.72;;;;;;;13.15;82.86;100171.59;4507231;77;21105;-85
2022/10/27 16:49:35;;;;;;;71.40;35.85;;;;;;;12.85;83.30;100180.16;4425301;78;21373;-84
2022/10/27 16:55:36;;;;;;;65.08;32.33;;;;;;;12.64;83.97;100188.75;4274675;78;9999872;-85
2022/10/27 17:01:38;;;;;;;52.38;25.92;;;;;;;12.46;84.45;100188.39;4390294;78;21015;-85
2022/10/27 17:07:42;;;;;;;48.80;23.83;;;;;;;12.28;85.05;100200.09;4405061;79;21030;-85
2022/10/27 17:13:45;;;;;;;47.20;23.80;;;;;;;12.13;85.66;100198.98;4404532;79;21061;-86
2022/10/27 17:19:51;;;;;;;49.65;26.57;;;;;;;11.97;86.15;100199.57;4388584;79;21613;-85
2022/10/27 17:26:08;;;;;;;37.73;19.98;;;;;;;11.89;86.61;100193.68;4353606;80;21026;-85
2022/10/27 17:32:10;;;;;;;38.28;17.82;;;;;;;11.72;86.69;100194.60;4327574;80;21447;-85
2022/10/27 17:38:11;;;;;;;45.05;22.02;;;;;;;11.47;87.03;100203.53;4412994;81;21475;-86
2022/10/27 17:44:15;;;;;;;40.15;17.07;;;;;;;11.32;87.66;100203.51;4408489;79;21000;-85
2022/10/27 17:50:16;;;;;;;38.17;18.90;;;;;;;11.19;88.09;100200.59;4424388;78;20965;-85
2022/10/27 17:56:22;;;;;;;32.65;16.67;;;;;;;11.09;88.52;100208.17;4307552;81;21616;-85
2022/10/27 18:02:24;;;;;;;31.52;18.05;;;;;;;10.93;88.57;100204.58;4406304;78;21569;-85
2022/10/27 18:08:28;;;;;;;39.50;21.55;;;;;;;10.74;88.69;100214.59;4472328;78;20984;-86
2022/10/27 18:14:30;;;;;;;45.12;22.27;;;;;;;10.63;89.34;100207.41;4465732;78;21070;-86
2022/10/27 18:20:32;;;;;;;43.08;22.80;;;;;;;10.55;89.73;100204.81;4519663;77;20979;-85
2022/10/27 18:26:53;;;;;;;42.27;25.02;;;;;;;10.40;89.91;100203.58;4371173;80;20971;-84
2022/10/27 18:32:55;;;;;;;48.38;26.73;;;;;;;10.29;90.25;100207.14;4424798;78;21048;-85
2022/10/27 18:39:00;;;;;;;40.95;25.05;;;;;;;10.12;90.50;100204.62;4496489;77;21010;-85
2022/10/27 18:45:01;;;;;;;67.03;35.10;;;;;;;9.94;90.55;100203.23;4431900;78;21419;-85
2022/10/27 18:51:14;;;;;;;52.03;31.62;;;;;;;9.79;90.85;100216.22;4517259;77;21849;-85
2022/10/27 18:57:39;;;;;;;60.70;34.78;;;;;;;9.70;91.25;100227.25;4377254;80;20990;-84
2022/10/27 19:03:41;;;;;;;59.38;37.75;;;;;;;9.60;91.40;100226.89;4446254;79;21477;-85
2022/10/27 19:09:43;;;;;;;61.73;35.40;;;;;;;9.45;91.91;100222.86;4517023;76;21503;-84
2022/10/27 19:16:02;;;;;;;56.98;32.55;;;;;;;9.42;92.45;100232.55;4539808;76;21378;-85
2022/10/27 19:22:06;;;;;;;49.88;30.75;;;;;;;9.32;92.14;100236.25;4549897;76;21115;-84
2022/10/27 19:28:07;;;;;;;44.25;28.70;;;;;;;9.12;92.03;100232.99;4512652;76;21623;-84
2022/10/27 19:34:09;;;;;;;56.65;32.85;;;;;;;8.98;92.47;100246.94;4544437;76;20947;-85
2022/10/27 19:40:13;;;;;;;47.10;29.32;;;;;;;8.92;92.86;100238.72;4540451;76;21087;-85
2022/10/27 19:46:14;;;;;;;51.05;32.05;;;;;;;8.86;93.45;100239.25;4542207;76;21410;-84
2022/10/27 19:52:17;;;;;;;52.40;32.38;;;;;;;8.84;93.42;100237.41;4540912;76;21480;-84
2022/10/27 19:58:20;;;;;;;51.48;30.23;;;;;;;8.73;93.55;100239.75;4537951;76;21434;-84
2022/10/27 20:04:21;;;;;;;48.45;28.15;;;;;;;8.67;93.78;100243.00;4532315;76;21071;-84
2022/10/27 20:10:23;;;;;;;49.48;29.63;;;;;;;8.56;93.88;100242.60;4582682;76;20951;-84
2022/10/27 20:16:28;;;;;;;56.95;28.98;;;;;;;8.51;94.22;100239.25;4458114;78;21034;-84
2022/10/27 20:22:30;;;;;;;53.15;30.45;;;;;;;8.33;94.15;100244.01;4396538;79;21066;-84
2022/10/27 20:28:33;;;;;;;54.20;32.08;;;;;;;8.32;94.49;100237.52;4472240;78;21539;-84
2022/10/27 20:34:35;;;;;;;46.70;27.58;;;;;;;8.20;94.45;100230.59;4417030;79;21003;-84
2022/10/27 20:40:39;;;;;;;48.75;30.57;;;;;;;8.16;95.18;100230.44;4559469;76;20973;-84
2022/10/27 20:46:40;;;;;;;53.98;32.33;;;;;;;7.99;94.64;100225.88;4548913;76;20974;-84
2022/10/27 20:52:42;;;;;;;51.08;29.95;;;;;;;7.88;94.92;100228.73;4562742;76;20996;-84
2022/10/27 20:58:44;;;;;;;45.52;29.40;;;;;;;7.86;95.71;100228.84;4583107;76;20949;-84
2022/10/27 21:04:45;;;;;;;58.02;28.45;;;;;;;7.84;95.81;100229.17;4540356;76;21889;-84
2022/10/27 21:10:46;;;;;;;56.53;31.17;;;;;;;7.76;95.65;100233.27;4461189;78;21340;-84
2022/10/27 21:16:49;;;;;;;50.28;30.72;;;;;;;7.68;95.87;100232.19;4472265;78;20999;-84
2022/10/27 21:22:55;;;;;;;49.00;29.40;;;;;;;7.64;96.33;100223.63;4472239;78;21008;-84
2022/10/27 21:28:58;;;;;;;56.02;30.55;;;;;;;7.65;96.22;100220.58;4471171;78;20987;-84
2022/10/27 21:35:00;;;;;;;41.33;25.08;;;;;;;7.61;96.26;100217.47;4471491;78;21039;-85
2022/10/27 21:41:04;;;;;;;45.23;28.57;;;;;;;7.65;97.24;100219.21;4488739;78;21616;-84
2022/10/27 21:47:05;;;;;;;51.37;28.70;;;;;;;7.59;96.56;100220.52;4467663;78;21032;-83
2022/10/27 21:53:07;;;;;;;47.30;28.62;;;;;;;7.50;96.66;100214.27;4461290;78;21015;-84
2022/10/27 21:59:10;;;;;;;46.50;29.32;;;;;;;7.34;96.41;100218.66;4449071;78;21010;-84
2022/10/27 22:05:11;;;;;;;49.13;27.87;;;;;;;7.20;96.22;100218.05;4477222;77;20973;-84
2022/10/27 22:11:21;;;;;;;47.88;27.65;;;;;;;7.08;96.61;100207.00;4497595;77;20985;-84
2022/10/27 22:17:22;;;;;;;43.65;26.82;;;;;;;6.99;96.75;100204.85;4524632;76;21463;-84
2022/10/27 22:23:23;;;;;;;42.50;25.25;;;;;;;6.88;96.99;100204.13;4566889;76;21499;-83
2022/10/27 22:29:25;;;;;;;39.13;24.20;;;;;;;6.81;97.07;100200.55;4549729;76;20982;-84
2022/10/27 22:35:26;;;;;;;41.88;25.52;;;;;;;6.95;98.50;100207.99;4569816;76;20992;-84
2022/10/27 22:41:30;;;;;;;46.60;28.75;;;;;;;6.97;97.68;100207.09;4541735;76;21457;-84
2022/10/27 22:47:37;;;;;;;44.80;26.35;;;;;;;6.77;97.16;100203.66;4563355;76;21491;-83
2022/10/27 22:53:41;;;;;;;44.85;26.87;;;;;;;6.64;97.44;100215.49;4560388;76;21073;-83
2022/10/27 22:59:42;;;;;;;39.78;22.73;;;;;;;6.56;97.69;100219.03;4534882;76;20965;-83
2022/10/27 23:05:53;;;;;;;40.43;23.87;;;;;;;6.42;97.97;100226.53;4557284;76;21024;-83
2022/10/27 23:11:54;;;;;;;45.80;25.52;;;;;;;6.52;98.55;100219.41;4561256;76;21071;-85
2022/10/27 23:17:55;;;;;;;47.65;27.82;;;;;;;6.43;98.37;100220.52;4558025;76;21046;-82
2022/10/27 23:23:59;;;;;;;49.40;26.57;;;;;;;6.49;98.88;100216.52;4555033;76;22093;-84
2022/10/27 23:30:00;;;;;;;44.63;26.27;;;;;;;6.49;98.77;100215.97;4567070;76;21035;-84
2022/10/27 23:36:03;;;;;;;43.55;24.43;;;;;;;6.36;98.48;100223.70;4556258;76;21035;-86
2022/10/27 23:42:05;;;;;;;51.18;22.67;;;;;;;6.25;98.71;100222.40;4569688;76;21007;-84
2022/10/27 23:48:08;;;;;;;48.50;23.90;;;;;;;6.29;99.84;100226.11;4546805;76;20940;-84
2022/10/27 23:54:10;;;;;;;41.58;23.45;;;;;;;6.47;100.00;100232.38;4554179;76;21006;-84
